Terminal Aerodrome Forecast
Issued by NWS Nashville, TN

Home | Current Version | Previous Version | Text Only | Print | Product List | Glossary On
Versions: 1 2 3 4 5 6 7 8 9 10 11 12 13 14 15 16 17 18 19 20 21 22 23 24 25 26 27 28 29 30 31 32 33 34 35 36 37 38 39 40 41 42 43 44 45 46 47 48 49 50
000
FTUS44 KOHX 200530
TAFCSV
TAF
KCSV 200530Z 2006/2106 21004KT P6SM VCTS BKN060CB
     FM200900 20004KT P6SM VCTS OVC020CB
     FM201300 25012G22KT P6SM VCSH BKN025 OVC050
     FM202200 27008G16KT P6SM BKN050
     FM210000 VRB03KT P6SM SCT120=

USA.gov is the U.S. government's official web portal to all federal, state and local government web resources and services.